Time;durP1;ratioP1;P1;durP2;ratioP2;P2;SDS_P1;SDS_P2;PMS_P1;PMS_P2;Temp;Humidity;BMP_temperature;BMP_pressure;BME280_temperature;BME280_humidity;BME280_pressure;Samples;Min_cycle;Max_cycle;Signal;HPM_P1;HPM_P2
2023/10/31 00:01:46;;;;;;;10.73;7.63;;;12.60;99.90;;;;;;5075457;28;21001;-59
2023/10/31 00:04:13;;;;;;;7.97;7.33;;;12.60;99.90;;;;;;5075440;28;20441;-59
2023/10/31 00:06:41;;;;;;;7.30;6.70;;;12.60;99.90;;;;;;5075539;28;20440;-59
2023/10/31 00:09:07;;;;;;;8.20;7.40;;;12.50;99.90;;;;;;5075167;28;20977;-59
2023/10/31 00:11:34;;;;;;;7.10;6.50;;;12.50;99.90;;;;;;5075244;28;20479;-59
2023/10/31 00:14:01;;;;;;;6.03;5.53;;;12.60;99.90;;;;;;5075026;28;20961;-59
2023/10/31 00:16:28;;;;;;;5.10;4.70;;;12.60;99.90;;;;;;5075269;28;20485;-60
2023/10/31 00:18:54;;;;;;;3.80;3.33;;;12.60;99.90;;;;;;5075301;28;20441;-60
2023/10/31 00:21:21;;;;;;;12.80;2.40;;;12.50;99.90;;;;;;5075196;28;20535;-59
2023/10/31 00:23:50;;;;;;;2.20;1.90;;;12.40;99.90;;;;;;5074944;28;20440;-59
2023/10/31 00:26:16;;;;;;;4.00;2.30;;;12.30;99.90;;;;;;5075082;28;20448;-59
2023/10/31 00:28:43;;;;;;;2.33;2.13;;;12.30;99.90;;;;;;5074750;28;20451;-59
2023/10/31 00:31:11;;;;;;;3.27;2.67;;;12.30;99.90;;;;;;5074881;28;20476;-59
2023/10/31 00:33:38;;;;;;;3.47;3.17;;;12.20;99.90;;;;;;5074935;28;20444;-59
2023/10/31 00:36:05;;;;;;;3.00;2.60;;;12.10;99.90;;;;;;5074790;28;20494;-59
2023/10/31 00:38:32;;;;;;;3.93;3.63;;;12.10;99.90;;;;;;5074875;28;20480;-59
2023/10/31 00:41:00;;;;;;;3.50;3.20;;;12.10;99.90;;;;;;5074676;28;20472;-59
2023/10/31 00:43:27;;;;;;;5.27;4.13;;;12.10;99.90;;;;;;5074255;28;20942;-59
2023/10/31 00:45:54;;;;;;;7.63;4.93;;;12.20;99.90;;;;;;5074736;28;20433;-59
2023/10/31 00:48:20;;;;;;;4.70;4.10;;;12.20;99.90;;;;;;5074602;28;20448;-59
2023/10/31 00:50:47;;;;;;;5.30;4.80;;;12.20;99.90;;;;;;5074365;28;20965;-59
2023/10/31 00:53:15;;;;;;;5.30;4.90;;;12.20;99.90;;;;;;5074640;28;20436;-59
2023/10/31 00:55:41;;;;;;;7.70;5.37;;;12.20;99.90;;;;;;5074439;28;20473;-59
2023/10/31 00:58:09;;;;;;;8.43;7.20;;;12.30;99.90;;;;;;5074462;28;20445;-59
2023/10/31 01:00:37;;;;;;;7.40;6.47;;;12.30;99.90;;;;;;5074068;28;20448;-59
2023/10/31 01:03:04;;;;;;;6.67;6.17;;;12.30;99.90;;;;;;5073217;28;20943;-59
2023/10/31 01:05:30;;;;;;;5.83;5.17;;;12.30;99.90;;;;;;5074082;28;20436;-59
2023/10/31 01:07:57;;;;;;;5.80;4.90;;;12.40;99.90;;;;;;5074424;28;20455;-59
2023/10/31 01:10:24;;;;;;;5.20;4.70;;;12.40;99.90;;;;;;5073879;28;20463;-59
2023/10/31 01:12:50;;;;;;;5.00;4.50;;;12.30;99.90;;;;;;5073973;28;20548;-59
2023/10/31 01:15:18;;;;;;;4.30;3.90;;;12.40;99.90;;;;;;5073677;28;20994;-59
2023/10/31 01:17:45;;;;;;;8.37;4.77;;;12.30;99.90;;;;;;5073879;28;20453;-59
2023/10/31 01:20:12;;;;;;;5.27;3.60;;;12.20;99.90;;;;;;5073779;28;20787;-59
2023/10/31 01:22:39;;;;;;;8.37;4.40;;;12.20;99.90;;;;;;5073897;28;20461;-59
2023/10/31 01:25:06;;;;;;;5.60;3.87;;;12.20;99.90;;;;;;5073948;28;20448;-59
2023/10/31 01:27:33;;;;;;;8.00;3.90;;;12.20;99.90;;;;;;5074375;28;20445;-59
2023/10/31 01:30:00;;;;;;;7.17;3.80;;;12.20;99.90;;;;;;5073765;28;20476;-60
2023/10/31 01:32:28;;;;;;;5.87;3.80;;;12.20;99.90;;;;;;5073647;28;20496;-59
2023/10/31 01:34:54;;;;;;;5.43;3.57;;;12.20;99.90;;;;;;5074521;28;20449;-59
2023/10/31 01:37:21;;;;;;;5.53;4.63;;;12.20;99.90;;;;;;5073690;28;20480;-59
2023/10/31 01:39:48;;;;;;;4.83;3.97;;;12.20;99.90;;;;;;5073587;28;20445;-59
2023/10/31 01:42:15;;;;;;;4.23;3.90;;;12.10;99.90;;;;;;5072880;28;20464;-59
2023/10/31 01:44:42;;;;;;;4.40;3.83;;;12.20;99.90;;;;;;5073575;28;20504;-59
2023/10/31 01:47:09;;;;;;;10.33;7.87;;;12.20;99.90;;;;;;5073601;28;20440;-60
2023/10/31 01:49:37;;;;;;;17.17;13.83;;;12.20;99.90;;;;;;5073450;28;20448;-59
2023/10/31 01:52:05;;;;;;;18.33;14.60;;;12.20;99.90;;;;;;5073208;28;20465;-59
2023/10/31 01:54:33;;;;;;;16.13;14.50;;;12.20;99.90;;;;;;5073552;28;20541;-59
2023/10/31 01:57:01;;;;;;;15.20;12.13;;;12.20;99.90;;;;;;5073506;28;20487;-59
2023/10/31 01:59:28;;;;;;;13.07;11.70;;;12.10;99.90;;;;;;5073213;28;20453;-59
2023/10/31 02:01:56;;;;;;;10.30;8.50;;;12.10;99.90;;;;;;5073100;28;20990;-59
2023/10/31 02:04:23;;;;;;;12.43;9.30;;;12.00;99.90;;;;;;5073514;28;20448;-59
2023/10/31 02:06:51;;;;;;;10.37;8.60;;;12.00;99.90;;;;;;5073389;28;20441;-59
2023/10/31 02:09:17;;;;;;;11.60;7.90;;;12.00;99.90;;;;;;5073262;28;20433;-59
2023/10/31 02:11:44;;;;;;;7.97;7.17;;;12.00;99.90;;;;;;5073100;28;20476;-59
2023/10/31 02:14:11;;;;;;;10.53;7.30;;;12.10;99.90;;;;;;5073298;28;20447;-59
2023/10/31 02:16:38;;;;;;;9.60;6.13;;;12.10;99.90;;;;;;5072900;28;20827;-59
2023/10/31 02:19:04;;;;;;;7.73;5.90;;;12.10;99.90;;;;;;5073321;28;20487;-59
2023/10/31 02:21:33;;;;;;;7.80;6.07;;;12.10;99.90;;;;;;5073501;28;20839;-59
2023/10/31 02:24:01;;;;;;;7.47;5.93;;;12.10;99.90;;;;;;5072787;28;20985;-59
2023/10/31 02:26:32;;;;;;;7.97;5.80;;;12.10;99.90;;;;;;5073145;28;20448;-59
2023/10/31 02:28:59;;;;;;;9.33;5.77;;;12.00;99.90;;;;;;5073340;28;20445;-59
2023/10/31 02:31:25;;;;;;;8.70;5.43;;;12.00;99.90;;;;;;5073096;28;20468;-59
2023/10/31 02:33:52;;;;;;;9.77;6.03;;;12.00;99.90;;;;;;5073133;28;20464;-59
2023/10/31 02:36:20;;;;;;;8.10;6.47;;;12.10;99.90;;;;;;5073110;28;20673;-60
2023/10/31 02:38:47;;;;;;;9.70;6.00;;;12.00;99.90;;;;;;5073338;28;20444;-59
2023/10/31 02:41:15;;;;;;;9.83;6.60;;;12.00;99.90;;;;;;5073864;28;20472;-59
2023/10/31 02:43:42;;;;;;;9.67;6.40;;;12.00;99.90;;;;;;5073885;28;20930;-59
2023/10/31 02:46:10;;;;;;;8.37;7.07;;;12.00;99.90;;;;;;5073751;28;20449;-59
2023/10/31 02:48:39;;;;;;;7.10;6.40;;;12.00;99.90;;;;;;5073480;28;20867;-59
2023/10/31 02:51:06;;;;;;;6.47;5.63;;;12.00;99.90;;;;;;5073497;28;20833;-59
2023/10/31 02:53:33;;;;;;;10.07;6.20;;;12.00;99.90;;;;;;5074132;28;20448;-60
2023/10/31 02:55:59;;;;;;;7.20;6.50;;;12.00;99.90;;;;;;5076957;28;20484;-60
2023/10/31 02:58:27;;;;;;;8.50;6.17;;;12.00;99.90;;;;;;5077172;28;20444;-60
2023/10/31 03:00:54;;;;;;;7.07;6.27;;;12.00;99.90;;;;;;5077302;28;20460;-59
2023/10/31 03:03:21;;;;;;;6.63;5.87;;;12.00;99.90;;;;;;5077240;28;20452;-60
2023/10/31 03:05:47;;;;;;;9.37;6.70;;;12.00;99.90;;;;;;5077069;28;20441;-60
2023/10/31 03:08:14;;;;;;;8.10;6.40;;;11.90;99.90;;;;;;5076985;28;20448;-60
2023/10/31 03:10:42;;;;;;;6.20;5.03;;;11.90;99.90;;;;;;5076471;28;20460;-60
2023/10/31 03:13:09;;;;;;;8.20;5.17;;;11.90;99.90;;;;;;5076732;28;20425;-60
2023/10/31 03:15:37;;;;;;;8.03;5.13;;;12.00;99.90;;;;;;5076783;28;20440;-60
2023/10/31 03:18:03;;;;;;;8.43;4.67;;;12.00;99.90;;;;;;5076668;28;20440;-60
2023/10/31 03:20:31;;;;;;;5.20;4.70;;;12.00;99.90;;;;;;5076203;28;20444;-60
2023/10/31 03:22:57;;;;;;;8.33;4.50;;;12.00;99.90;;;;;;5076180;28;21041;-59
2023/10/31 03:25:24;;;;;;;4.87;4.47;;;12.00;99.90;;;;;;5076254;28;20457;-59
2023/10/31 03:27:51;;;;;;;5.47;4.67;;;12.00;99.90;;;;;;5076246;28;20444;-59
2023/10/31 03:30:17;;;;;;;8.07;4.50;;;12.10;99.90;;;;;;5076132;28;20444;-59
2023/10/31 03:32:45;;;;;;;5.80;4.33;;;12.10;99.90;;;;;;5076031;28;20477;-60
2023/10/31 03:35:12;;;;;;;7.73;3.70;;;12.10;99.90;;;;;;5076024;28;20455;-60
2023/10/31 03:37:41;;;;;;;5.90;4.40;;;12.20;99.90;;;;;;5075725;28;20484;-60
2023/10/31 03:40:09;;;;;;;5.13;3.63;;;12.20;99.90;;;;;;5075730;28;20810;-60
2023/10/31 03:42:35;;;;;;;4.50;3.50;;;12.20;99.90;;;;;;5075593;28;21081;-60
2023/10/31 03:45:02;;;;;;;5.20;3.70;;;12.20;99.90;;;;;;5075678;28;20464;-60
2023/10/31 03:47:29;;;;;;;5.27;3.50;;;12.20;99.90;;;;;;5075848;28;20461;-60
2023/10/31 03:49:57;;;;;;;4.03;3.03;;;12.30;99.90;;;;;;5075895;28;20445;-60
2023/10/31 03:52:24;;;;;;;4.73;3.17;;;12.30;99.90;;;;;;5075803;28;20500;-59
2023/10/31 03:54:50;;;;;;;5.33;3.50;;;12.30;99.90;;;;;;5075750;28;20444;-59
2023/10/31 03:57:17;;;;;;;5.20;3.20;;;12.20;99.90;;;;;;5075410;28;20484;-60
2023/10/31 03:59:44;;;;;;;4.50;3.70;;;12.10;99.90;;;;;;5075805;28;20456;-60
2023/10/31 04:02:11;;;;;;;4.07;3.67;;;12.10;99.90;;;;;;5075461;28;20525;-60
2023/10/31 04:04:38;;;;;;;4.80;3.60;;;12.10;99.90;;;;;;5075291;28;20444;-59
2023/10/31 04:07:06;;;;;;;4.90;4.13;;;12.10;99.90;;;;;;5075435;28;20433;-60
2023/10/31 04:09:33;;;;;;;4.90;4.40;;;12.20;99.90;;;;;;5075169;28;20444;-60
2023/10/31 04:12:00;;;;;;;4.50;3.97;;;12.20;99.90;;;;;;5074876;28;20519;-60
2023/10/31 04:14:27;;;;;;;3.87;3.57;;;12.10;99.90;;;;;;5075128;28;20441;-59
2023/10/31 04:16:53;;;;;;;5.07;4.30;;;12.10;99.90;;;;;;5075194;28;20476;-60
2023/10/31 04:19:20;;;;;;;5.77;4.20;;;12.10;99.90;;;;;;5075713;28;20448;-60
2023/10/31 04:21:47;;;;;;;4.40;4.00;;;12.10;99.90;;;;;;5075174;28;20472;-60
2023/10/31 04:24:15;;;;;;;4.30;4.00;;;12.10;99.90;;;;;;5075290;28;20445;-60
2023/10/31 04:26:42;;;;;;;5.33;4.00;;;12.10;99.90;;;;;;5075194;28;20444;-60
2023/10/31 04:29:08;;;;;;;4.77;3.70;;;12.10;99.90;;;;;;5075027;28;20440;-60
2023/10/31 04:31:35;;;;;;;4.73;4.20;;;12.10;99.90;;;;;;5074493;28;20869;-60
2023/10/31 04:34:02;;;;;;;5.70;4.53;;;12.10;99.90;;;;;;5074921;28;20828;-59
2023/10/31 04:36:29;;;;;;;4.87;4.47;;;12.10;99.90;;;;;;5074802;28;20822;-60
2023/10/31 04:38:55;;;;;;;5.77;5.13;;;12.10;99.90;;;;;;5074987;28;20452;-60
2023/10/31 04:41:23;;;;;;;5.57;4.93;;;12.20;99.90;;;;;;5074856;28;20468;-60
2023/10/31 04:43:49;;;;;;;4.80;4.40;;;12.20;99.90;;;;;;5074505;28;20445;-60
2023/10/31 04:46:16;;;;;;;5.17;4.67;;;12.20;99.90;;;;;;5074411;28;20819;-60
2023/10/31 04:48:43;;;;;;;5.20;4.70;;;12.10;99.90;;;;;;5074738;28;20514;-60
2023/10/31 04:51:10;;;;;;;5.70;4.73;;;12.20;99.90;;;;;;5074487;28;20465;-60
2023/10/31 04:53:36;;;;;;;5.20;4.80;;;12.20;99.90;;;;;;5074472;28;20441;-60
2023/10/31 04:56:03;;;;;;;6.73;5.20;;;12.20;99.90;;;;;;5074195;28;20444;-60
2023/10/31 04:58:31;;;;;;;5.20;4.70;;;12.10;99.90;;;;;;5074477;28;20440;-60
2023/10/31 05:00:58;;;;;;;7.80;4.80;;;12.10;99.90;;;;;;5074032;28;20456;-60
2023/10/31 05:03:25;;;;;;;4.13;3.83;;;12.10;99.90;;;;;;5074055;28;20934;-60
2023/10/31 05:05:51;;;;;;;5.87;4.30;;;12.10;99.90;;;;;;5074035;28;20445;-60
2023/10/31 05:08:18;;;;;;;4.80;4.30;;;12.10;99.90;;;;;;5073978;28;20931;-60
2023/10/31 05:10:47;;;;;;;3.80;3.50;;;12.10;99.90;;;;;;5073970;28;20460;-60
2023/10/31 05:13:14;;;;;;;7.10;4.40;;;12.10;99.90;;;;;;5074156;28;20475;-60
2023/10/31 05:15:42;;;;;;;6.40;4.27;;;12.10;99.90;;;;;;5073678;28;20445;-60
2023/10/31 05:18:08;;;;;;;5.63;4.17;;;12.10;99.90;;;;;;5073642;28;20473;-60
2023/10/31 05:20:35;;;;;;;5.03;4.40;;;12.20;99.90;;;;;;5074149;28;20452;-60
2023/10/31 05:23:02;;;;;;;8.20;5.00;;;12.30;99.90;;;;;;5073975;28;20467;-60
2023/10/31 05:25:29;;;;;;;6.33;5.10;;;12.30;99.90;;;;;;5073862;28;20943;-59
2023/10/31 05:27:55;;;;;;;4.87;4.47;;;12.30;99.90;;;;;;5073528;28;20839;-60
2023/10/31 05:30:22;;;;;;;5.30;4.80;;;12.30;99.90;;;;;;5073893;28;20437;-60
2023/10/31 05:32:51;;;;;;;5.17;4.67;;;12.30;99.90;;;;;;5073733;28;20839;-60
2023/10/31 05:35:17;;;;;;;5.33;4.83;;;12.30;99.90;;;;;;5073563;28;20491;-60
2023/10/31 05:37:44;;;;;;;6.43;5.80;;;12.20;99.90;;;;;;5073688;28;20485;-59
2023/10/31 05:40:12;;;;;;;5.87;5.40;;;12.30;99.90;;;;;;5073389;28;20895;-59
2023/10/31 05:42:39;;;;;;;6.10;5.43;;;12.20;99.90;;;;;;5073626;28;20468;-59
2023/10/31 05:45:06;;;;;;;5.70;5.20;;;12.10;99.90;;;;;;5073617;28;20443;-60
2023/10/31 05:47:33;;;;;;;6.60;5.83;;;12.10;99.90;;;;;;5073607;28;20437;-60
2023/10/31 05:50:01;;;;;;;6.20;5.60;;;12.10;99.90;;;;;;5074041;28;20531;-60
2023/10/31 05:52:29;;;;;;;6.43;5.80;;;12.10;99.90;;;;;;5074332;28;20472;-59
2023/10/31 05:54:56;;;;;;;7.60;6.30;;;12.10;99.90;;;;;;5073671;28;20441;-60
2023/10/31 05:57:22;;;;;;;6.30;5.70;;;12.10;99.90;;;;;;5073505;28;20842;-59
2023/10/31 05:59:49;;;;;;;6.53;5.93;;;12.10;99.90;;;;;;5073680;28;20445;-59
2023/10/31 06:02:16;;;;;;;6.83;6.23;;;12.10;99.90;;;;;;5073653;28;20460;-60
2023/10/31 06:04:43;;;;;;;6.13;5.57;;;12.20;99.90;;;;;;5071441;28;20799;-60
2023/10/31 06:07:11;;;;;;;6.80;6.20;;;12.20;99.90;;;;;;5071317;28;20519;-60
2023/10/31 06:09:38;;;;;;;6.90;6.40;;;12.10;99.90;;;;;;5053754;28;20978;-60
2023/10/31 06:12:06;;;;;;;7.83;5.80;;;12.10;99.90;;;;;;5053067;28;20512;-59
2023/10/31 06:14:32;;;;;;;6.20;5.57;;;12.10;99.90;;;;;;5053378;28;20470;-60
2023/10/31 06:17:01;;;;;;;6.87;5.97;;;12.10;99.90;;;;;;5053044;28;20564;-60
2023/10/31 06:19:27;;;;;;;7.33;5.67;;;12.10;99.90;;;;;;5053242;28;20499;-60
2023/10/31 06:21:54;;;;;;;5.43;5.03;;;12.10;99.90;;;;;;5052879;28;21002;-60
2023/10/31 06:24:22;;;;;;;8.67;6.17;;;12.10;99.90;;;;;;5053252;28;20450;-60
2023/10/31 06:26:49;;;;;;;10.93;6.40;;;12.10;99.90;;;;;;5053182;28;20445;-60
2023/10/31 06:29:15;;;;;;;6.57;5.97;;;12.10;99.90;;;;;;5068094;28;20447;-60
2023/10/31 06:31:42;;;;;;;7.80;7.10;;;12.10;99.90;;;;;;5077329;28;20468;-60
2023/10/31 06:34:09;;;;;;;7.40;6.73;;;12.10;99.90;;;;;;5077315;28;20444;-60
2023/10/31 06:36:35;;;;;;;7.77;7.00;;;12.10;99.90;;;;;;5076708;28;20452;-60
2023/10/31 06:39:02;;;;;;;8.53;7.83;;;12.10;99.90;;;;;;5076780;28;20930;-59
2023/10/31 06:41:31;;;;;;;8.40;7.70;;;12.10;99.90;;;;;;5077075;28;20500;-59
2023/10/31 06:43:57;;;;;;;8.60;7.80;;;12.10;99.90;;;;;;5077083;28;20446;-58
2023/10/31 06:46:24;;;;;;;9.77;8.77;;;12.10;99.90;;;;;;5076736;28;20973;-58
2023/10/31 06:48:51;;;;;;;11.50;10.10;;;12.10;99.90;;;;;;5077013;28;20445;-58
2023/10/31 06:51:18;;;;;;;12.63;10.10;;;12.10;99.90;;;;;;5076861;28;20464;-58
2023/10/31 06:53:45;;;;;;;11.03;9.93;;;12.10;99.90;;;;;;5076681;28;20452;-58
2023/10/31 06:56:11;;;;;;;12.70;11.43;;;12.10;99.90;;;;;;5076263;28;20815;-58
2023/10/31 06:58:39;;;;;;;11.93;10.73;;;12.10;99.90;;;;;;5076644;28;20515;-59
2023/10/31 07:01:06;;;;;;;11.43;9.80;;;12.00;99.90;;;;;;5076642;28;20463;-59
2023/10/31 07:03:33;;;;;;;10.27;9.20;;;11.90;99.90;;;;;;5076088;28;20445;-59
2023/10/31 07:05:59;;;;;;;11.10;9.90;;;11.90;99.90;;;;;;5077531;28;20433;-59
2023/10/31 07:08:26;;;;;;;9.20;8.30;;;11.80;99.90;;;;;;5076626;28;20440;-59
2023/10/31 07:10:53;;;;;;;10.10;8.43;;;11.90;99.90;;;;;;5076549;28;20483;-59
2023/10/31 07:13:19;;;;;;;9.27;8.37;;;11.80;99.90;;;;;;5076398;28;20445;-59
2023/10/31 07:15:48;;;;;;;8.63;7.87;;;11.80;99.90;;;;;;5076332;28;20452;-59
2023/10/31 07:18:14;;;;;;;9.07;8.17;;;11.80;99.90;;;;;;5076264;28;20488;-59
2023/10/31 07:20:41;;;;;;;9.00;8.13;;;11.80;99.90;;;;;;5076338;28;20447;-59
2023/10/31 07:23:09;;;;;;;10.30;9.13;;;11.80;99.90;;;;;;5076385;28;20451;-60
2023/10/31 07:25:35;;;;;;;8.30;7.60;;;11.80;99.90;;;;;;5076062;28;20452;-59
2023/10/31 07:28:02;;;;;;;9.33;8.37;;;11.90;99.90;;;;;;5076202;28;20440;-59
2023/10/31 07:30:29;;;;;;;8.37;7.60;;;12.00;99.90;;;;;;5076193;28;20444;-59
2023/10/31 07:32:57;;;;;;;10.40;7.67;;;11.90;99.90;;;;;;5076401;28;20469;-59
2023/10/31 07:35:24;;;;;;;8.57;7.60;;;11.90;99.90;;;;;;5076053;28;20441;-59
2023/10/31 07:37:51;;;;;;;9.20;7.93;;;11.90;99.90;;;;;;5075620;28;20480;-59
2023/10/31 07:40:18;;;;;;;7.93;7.17;;;11.90;99.90;;;;;;5075248;28;20536;-59
2023/10/31 07:42:44;;;;;;;7.73;7.03;;;12.00;99.90;;;;;;5075840;28;20460;-59
2023/10/31 07:45:11;;;;;;;8.73;7.93;;;12.10;99.90;;;;;;5075948;28;20448;-59
2023/10/31 07:47:38;;;;;;;8.23;7.43;;;12.10;99.90;;;;;;5075542;28;20811;-59
2023/10/31 07:50:06;;;;;;;7.70;7.00;;;12.10;99.90;;;;;;5075759;28;20480;-60
2023/10/31 07:52:33;;;;;;;7.40;6.80;;;12.10;99.90;;;;;;5075661;28;20475;-59
2023/10/31 07:55:00;;;;;;;8.87;7.43;;;12.10;99.90;;;;;;5075747;28;20448;-60
2023/10/31 07:57:26;;;;;;;7.57;6.77;;;12.10;99.90;;;;;;5075425;28;20485;-59
2023/10/31 07:59:53;;;;;;;7.70;6.90;;;12.10;99.90;;;;;;5075232;28;20455;-60
2023/10/31 08:02:20;;;;;;;10.57;7.23;;;12.20;99.90;;;;;;5075215;28;20978;-59
2023/10/31 08:04:46;;;;;;;8.73;7.83;;;12.20;99.90;;;;;;5075016;28;20930;-59
2023/10/31 08:07:14;;;;;;;8.60;6.67;;;12.40;99.90;;;;;;5075582;28;20851;-59
2023/10/31 08:09:41;;;;;;;7.37;6.50;;;12.20;99.90;;;;;;5075093;28;20958;-59
2023/10/31 08:12:08;;;;;;;9.90;7.23;;;12.30;99.90;;;;;;5075107;28;20468;-59
2023/10/31 08:14:35;;;;;;;7.20;6.50;;;12.30;99.90;;;;;;5074973;28;20943;-59
2023/10/31 08:17:01;;;;;;;6.90;6.30;;;12.30;99.90;;;;;;5075176;28;20441;-60
2023/10/31 08:19:28;;;;;;;7.17;6.43;;;12.40;99.90;;;;;;5074897;28;21001;-60
2023/10/31 08:21:55;;;;;;;13.53;7.90;;;12.40;99.90;;;;;;5074877;28;20867;-60
2023/10/31 08:24:23;;;;;;;7.97;7.17;;;12.40;99.90;;;;;;5075146;28;20444;-60
2023/10/31 08:26:49;;;;;;;8.00;6.63;;;12.40;99.90;;;;;;5075088;28;20444;-60
2023/10/31 08:29:16;;;;;;;6.83;6.23;;;12.40;99.90;;;;;;5074985;28;20445;-60
2023/10/31 08:31:43;;;;;;;6.93;6.33;;;12.40;99.90;;;;;;5074666;28;20460;-64
2023/10/31 08:34:10;;;;;;;6.80;6.17;;;12.30;99.90;;;;;;5074619;28;20935;-60
2023/10/31 08:36:36;;;;;;;7.10;6.40;;;12.40;99.90;;;;;;5074932;28;20539;-60
2023/10/31 08:39:04;;;;;;;7.03;6.33;;;12.50;99.90;;;;;;5075008;28;20484;-60
2023/10/31 08:41:32;;;;;;;7.23;6.53;;;12.60;99.90;;;;;;5074856;28;20464;-60
2023/10/31 08:43:59;;;;;;;5.50;5.10;;;12.60;99.90;;;;;;5074817;28;20470;-61
2023/10/31 08:46:26;;;;;;;6.77;6.17;;;12.60;99.90;;;;;;5074732;28;20870;-60
2023/10/31 08:48:52;;;;;;;8.87;6.73;;;12.50;99.90;;;;;;5074700;28;20445;-60
2023/10/31 08:51:19;;;;;;;7.20;6.50;;;12.50;99.90;;;;;;5073506;28;20463;-60
2023/10/31 08:53:46;;;;;;;6.70;6.00;;;12.50;99.90;;;;;;5074312;28;20452;-60
2023/10/31 08:56:12;;;;;;;5.57;5.07;;;12.50;99.90;;;;;;5074196;28;20926;-60
2023/10/31 08:58:41;;;;;;;6.50;5.00;;;12.60;99.90;;;;;;5074315;28;20843;-60
2023/10/31 09:01:07;;;;;;;5.40;4.87;;;12.70;99.90;;;;;;5074370;28;20499;-60
2023/10/31 09:03:34;;;;;;;5.33;4.83;;;12.90;99.90;;;;;;5074345;28;20448;-60
2023/10/31 09:06:02;;;;;;;5.90;5.30;;;12.90;99.90;;;;;;5074450;28;20444;-60
2023/10/31 09:08:28;;;;;;;8.13;5.27;;;13.00;99.90;;;;;;5075338;28;20480;-60
2023/10/31 09:10:55;;;;;;;5.53;4.00;;;13.00;99.90;;;;;;5074178;28;20476;-60
2023/10/31 09:13:22;;;;;;;5.60;4.60;;;13.00;99.90;;;;;;5074214;28;20947;-60
2023/10/31 09:15:50;;;;;;;5.03;4.47;;;13.10;99.90;;;;;;5074270;28;20850;-61
2023/10/31 09:18:17;;;;;;;5.63;5.13;;;13.00;99.90;;;;;;5073868;28;20512;-60
2023/10/31 09:20:44;;;;;;;4.03;3.73;;;13.00;99.90;;;;;;5074105;28;20476;-60
2023/10/31 09:23:10;;;;;;;4.57;4.17;;;13.00;99.90;;;;;;5073971;28;20498;-60
2023/10/31 09:25:37;;;;;;;6.30;3.17;;;13.20;99.90;;;;;;5074004;28;20449;-60
2023/10/31 09:28:04;;;;;;;2.80;2.60;;;13.30;99.90;;;;;;5074171;28;20441;-60
2023/10/31 09:30:31;;;;;;;4.03;2.93;;;13.40;99.90;;;;;;5073956;28;20476;-60
2023/10/31 09:32:59;;;;;;;3.83;2.90;;;13.40;99.90;;;;;;5073767;28;20531;-61
2023/10/31 09:35:26;;;;;;;4.67;2.63;;;13.50;99.80;;;;;;5073832;28;20541;-60
2023/10/31 09:37:53;;;;;;;6.00;3.17;;;13.60;99.70;;;;;;5073260;28;20848;-60
2023/10/31 09:40:20;;;;;;;3.93;2.70;;;13.70;99.90;;;;;;5073742;28;20444;-60
2023/10/31 09:42:47;;;;;;;4.83;3.83;;;13.90;99.20;;;;;;5073512;28;20463;-60
2023/10/31 09:45:14;;;;;;;2.13;2.00;;;14.10;98.50;;;;;;5073479;28;20444;-60
2023/10/31 09:47:42;;;;;;;2.40;2.20;;;14.10;98.00;;;;;;5073328;28;20943;-60
2023/10/31 09:50:11;;;;;;;3.23;2.43;;;14.20;98.40;;;;;;5073569;28;20456;-60
2023/10/31 09:52:38;;;;;;;4.70;2.30;;;14.20;99.20;;;;;;5073488;28;20461;-60
2023/10/31 09:55:06;;;;;;;2.83;2.47;;;14.30;98.50;;;;;;5073584;28;20456;-60
2023/10/31 09:57:33;;;;;;;2.30;2.10;;;14.30;98.00;;;;;;5072851;28;20934;-60
2023/10/31 10:00:00;;;;;;;2.63;2.30;;;14.40;97.70;;;;;;5073379;28;20484;-60
2023/10/31 10:02:27;;;;;;;3.73;2.43;;;14.40;97.70;;;;;;5072993;28;20461;-60
2023/10/31 10:04:53;;;;;;;3.87;1.93;;;14.40;97.40;;;;;;5073454;28;20448;-60
2023/10/31 10:07:21;;;;;;;3.10;2.80;;;14.30;96.80;;;;;;5073081;28;20817;-60
2023/10/31 10:09:48;;;;;;;3.70;2.60;;;14.20;97.10;;;;;;5073138;28;20437;-60
2023/10/31 10:12:17;;;;;;;3.33;2.80;;;14.10;97.40;;;;;;5073103;28;20492;-60
2023/10/31 10:14:46;;;;;;;3.13;2.13;;;14.10;97.30;;;;;;5073419;28;20447;-60
2023/10/31 10:17:17;;;;;;;7.10;2.20;;;14.10;97.10;;;;;;5073123;28;20483;-60
2023/10/31 10:19:44;;;;;;;2.47;2.10;;;14.20;97.30;;;;;;5073071;28;20477;-60
2023/10/31 10:22:11;;;;;;;4.57;2.13;;;14.40;97.20;;;;;;5073252;28;20461;-60
2023/10/31 10:24:42;;;;;;;2.10;1.90;;;14.30;96.90;;;;;;5073290;28;20471;-60
2023/10/31 10:27:09;;;;;;;2.33;2.00;;;14.30;96.30;;;;;;5073299;28;20425;-60
2023/10/31 10:29:36;;;;;;;3.83;1.83;;;14.30;96.30;;;;;;5073357;28;20437;-60
2023/10/31 10:32:08;;;;;;;2.70;2.20;;;14.30;95.90;;;;;;5073107;28;21006;-60
2023/10/31 10:34:34;;;;;;;2.37;1.70;;;14.30;96.30;;;;;;5072948;28;20918;-60
2023/10/31 10:37:04;;;;;;;2.40;1.50;;;14.20;95.90;;;;;;5073073;28;20441;-60
2023/10/31 10:39:33;;;;;;;2.13;1.93;;;14.40;96.10;;;;;;5073296;28;20480;-60
2023/10/31 10:42:06;;;;;;;3.40;2.00;;;14.40;95.00;;;;;;5073115;28;20464;-60
2023/10/31 10:44:34;;;;;;;2.33;1.70;;;14.40;94.80;;;;;;5073099;28;20840;-60
2023/10/31 10:47:04;;;;;;;2.63;1.97;;;14.40;94.90;;;;;;5073193;28;20445;-60
2023/10/31 10:49:34;;;;;;;3.43;2.20;;;14.30;94.30;;;;;;5073020;28;20468;-60
2023/10/31 10:52:15;;;;;;;3.30;2.00;;;14.50;94.70;;;;;;5073063;28;20469;-61
2023/10/31 10:54:46;;;;;;;3.30;2.27;;;14.60;94.90;;;;;;5072713;28;20421;-60
2023/10/31 10:57:21;;;;;;;2.00;1.80;;;14.80;94.80;;;;;;5072800;28;20475;-60
2023/10/31 10:59:51;;;;;;;4.60;1.70;;;14.80;94.10;;;;;;5072869;28;20471;-60
2023/10/31 11:02:19;;;;;;;2.60;1.57;;;15.00;93.80;;;;;;5073248;28;20464;-60
2023/10/31 11:04:46;;;;;;;3.60;1.80;;;15.60;92.70;;;;;;5072928;28;20480;-60
2023/10/31 11:07:13;;;;;;;1.80;1.60;;;16.00;91.80;;;;;;5072865;28;20447;-60
2023/10/31 11:09:43;;;;;;;3.20;1.40;;;16.50;90.50;;;;;;5072867;28;20475;-60
2023/10/31 11:12:11;;;;;;;2.53;1.30;;;16.80;88.20;;;;;;5072530;28;20472;-60
2023/10/31 11:14:41;;;;;;;1.30;1.20;;;17.30;85.90;;;;;;5073585;28;20479;-60
2023/10/31 11:17:17;;;;;;;1.90;1.43;;;17.80;83.20;;;;;;5076413;28;20456;-60
2023/10/31 11:19:44;;;;;;;5.13;1.40;;;18.10;81.70;;;;;;5076104;28;20884;-61
2023/10/31 11:22:11;;;;;;;2.20;1.30;;;18.50;82.10;;;;;;5076382;28;20472;-60
2023/10/31 11:24:38;;;;;;;4.80;1.87;;;18.80;78.70;;;;;;5076271;28;20445;-60
2023/10/31 11:27:07;;;;;;;2.57;1.50;;;19.30;76.90;;;;;;5076301;28;20445;-61
2023/10/31 11:29:35;;;;;;;2.70;1.50;;;19.50;73.50;;;;;;5076230;28;20441;-61
2023/10/31 11:32:04;;;;;;;2.23;1.20;;;19.60;72.90;;;;;;5075722;28;20819;-60
2023/10/31 11:34:31;;;;;;;2.93;1.50;;;19.60;72.70;;;;;;5076104;28;20441;-60
2023/10/31 11:37:19;;;;;;;1.70;1.50;;;19.60;71.60;;;;;;5076193;28;20449;-60
2023/10/31 11:40:16;;;;;;;4.10;1.60;;;19.20;74.00;;;;;;5075831;28;20471;-60
2023/10/31 11:42:44;;;;;;;6.00;1.80;;;18.70;74.30;;;;;;5075879;28;20472;-60
2023/10/31 11:45:11;;;;;;;2.60;1.70;;;18.40;74.60;;;;;;5075973;28;20445;-60
2023/10/31 11:47:48;;;;;;;2.20;1.43;;;17.90;76.30;;;;;;5075559;28;20436;-60
2023/10/31 11:50:15;;;;;;;4.10;1.30;;;17.40;79.90;;;;;;5076672;28;20436;-60
2023/10/31 11:52:42;;;;;;;3.80;1.70;;;17.10;79.90;;;;;;5075680;28;20872;-60
2023/10/31 11:55:11;;;;;;;3.33;1.53;;;16.70;82.00;;;;;;5075705;28;20448;-60
2023/10/31 11:57:38;;;;;;;2.60;1.43;;;16.60;84.20;;;;;;5075516;28;20480;-60
2023/10/31 12:00:05;;;;;;;4.10;1.80;;;16.40;83.90;;;;;;5075579;28;20472;-60
2023/10/31 12:02:32;;;;;;;4.60;1.90;;;16.30;86.10;;;;;;5075522;28;20471;-60
2023/10/31 12:05:10;;;;;;;2.90;1.70;;;16.30;87.10;;;;;;5075567;28;20436;-60
2023/10/31 12:07:44;;;;;;;4.10;1.83;;;16.30;87.10;;;;;;5075150;28;20958;-60
2023/10/31 12:10:11;;;;;;;3.03;1.40;;;16.30;88.00;;;;;;5075391;28;20445;-60
2023/10/31 12:12:38;;;;;;;5.43;1.33;;;16.30;88.10;;;;;;5075483;28;20475;-60
2023/10/31 12:15:08;;;;;;;1.80;1.10;;;16.30;87.90;;;;;;5075335;28;20441;-60
2023/10/31 12:17:35;;;;;;;3.10;1.50;;;16.30;88.40;;;;;;5075285;28;20947;-60
2023/10/31 12:20:05;;;;;;;4.30;1.20;;;16.30;87.80;;;;;;5075155;28;20488;-61
2023/10/31 12:22:33;;;;;;;3.20;1.30;;;16.50;87.10;;;;;;5075617;28;20492;-60
2023/10/31 12:25:03;;;;;;;4.43;1.77;;;16.70;87.20;;;;;;5075405;28;20455;-60
2023/10/31 12:27:44;;;;;;;5.53;1.80;;;17.00;87.30;;;;;;5075513;28;20476;-61
2023/10/31 12:30:11;;;;;;;1.83;1.30;;;17.40;86.30;;;;;;5075084;28;20895;-61
2023/10/31 12:32:38;;;;;;;7.53;2.17;;;17.60;83.10;;;;;;5075243;28;20516;-60
2023/10/31 12:35:05;;;;;;;1.63;1.20;;;17.70;79.40;;;;;;5075213;28;20448;-60
2023/10/31 12:37:34;;;;;;;2.37;1.10;;;18.00;78.40;;;;;;5074804;28;20939;-60
2023/10/31 12:40:04;;;;;;;10.00;1.50;;;18.50;78.40;;;;;;5074616;28;20476;-60
2023/10/31 12:42:32;;;;;;;3.53;0.97;;;18.60;75.00;;;;;;5074976;28;20468;-61
2023/10/31 12:45:00;;;;;;;1.60;1.03;;;18.50;75.80;;;;;;5075001;28;20456;-60
2023/10/31 12:47:26;;;;;;;3.73;1.40;;;18.70;74.30;;;;;;5074859;28;20494;-60